Kalaeloa (John Rodgers Field) Airport Kapolei US
ICAO: PHJR
IATA:
Category: Medium
Scheduled Services:

Elevation: 30 ft
TransAlt. 18000 ft.

Airport Communications:
HONOLULU APP/DEP:118.3
ATIS:119.8
CLNC DEL:121.7
CTAF:132.6
GND:123.8
TWR:132.6

PHJR Zoom In..

Runways:

(A) RW 04L length 4500 ft width 200 ft
---- / hdg 44

(B) RW 04R length 8000 ft width 200 ft
---- / hdg 44

(C) RW 11 length 6000 ft width 200 ft
---- / hdg 108

(D) RW 22L length 8000 ft width 200 ft
---- / hdg 224

(E) RW 22R length 4500 ft width 200 ft
---- / hdg 224

(F) RW 29 length 6000 ft width 200 ft
---- / hdg 288

Location; PHJR
Day. 16 / Time. 17.53 Zulu
* Altimeter: 30.04
* Temperature: 28° c. 82.4°f.
* Wind from: 060° Speed 10 kn.
Dewpoint: 21° c.
Visibility: 10 Statute Miles.
Clouds: Clear (automated report).

PHJR 161753Z 06010KT 10SM CLR 28/21 A3004 RMK AO2 SLP177 T02780206 10283 20250 53013


Wind From 060°
Speed 10 kn.

 
 
jpsmedia.com for Web Design worldairports.se 2018   terms of use